sensor_id;sensor_type;location;lat;lon;timestamp;pressure;altitude;pressure_sealevel;temperature;humidity
32452;BME280;45528;52.102;5.242;2023-01-29T00:01:31;102618.0;;;10.81;51.74
32452;BME280;45528;52.102;5.242;2023-01-29T00:03:08;102615.00000000001;;;10.85;51.83
32452;BME280;45528;52.102;5.242;2023-01-29T00:04:44;102617.0;;;10.79;52.37
32452;BME280;45528;52.102;5.242;2023-01-29T00:08:00;102614.00000000001;;;10.84;51.87
32452;BME280;45528;52.102;5.242;2023-01-29T00:09:37;102613.00000000001;;;10.84;51.71
32452;BME280;45528;52.102;5.242;2023-01-29T00:11:15;102609.99999999999;;;10.84;51.74
32452;BME280;45528;52.102;5.242;2023-01-29T00:12:52;102599.0;;;10.84;51.93
32452;BME280;45528;52.102;5.242;2023-01-29T00:16:05;102596.0;;;10.81;51.88
32452;BME280;45528;52.102;5.242;2023-01-29T00:17:42;102591.00000000001;;;10.76;52.24
32452;BME280;45528;52.102;5.242;2023-01-29T00:19:20;102589.00000000001;;;10.71;52.4
32452;BME280;45528;52.102;5.242;2023-01-29T00:22:33;102583.0;;;10.68;52.25
32452;BME280;45528;52.102;5.242;2023-01-29T00:24:10;102577.0;;;10.83;52.07
32452;BME280;45528;52.102;5.242;2023-01-29T00:25:47;102577.0;;;10.85;52.06
32452;BME280;45528;52.102;5.242;2023-01-29T00:29:01;102574.0;;;10.81;51.81
32452;BME280;45528;52.102;5.242;2023-01-29T00:30:38;102572.0;;;10.77;52.15
32452;BME280;45528;52.102;5.242;2023-01-29T00:32:15;102580.0;;;10.77;52.38
32452;BME280;45528;52.102;5.242;2023-01-29T00:33:52;102581.0;;;10.74;52.36
32452;BME280;45528;52.102;5.242;2023-01-29T00:37:07;102583.0;;;10.7;52.48
32452;BME280;45528;52.102;5.242;2023-01-29T00:38:44;102583.99999999999;;;10.74;52.57
32452;BME280;45528;52.102;5.242;2023-01-29T00:40:22;102584.99999999999;;;10.72;52.51
32452;BME280;45528;52.102;5.242;2023-01-29T00:46:09;102577.0;;;10.84;52.21
32452;BME280;45528;52.102;5.242;2023-01-29T00:47:46;102578.0;;;10.87;52.1
32452;BME280;45528;52.102;5.242;2023-01-29T00:49:24;102573.0;;;10.96;51.8
32452;BME280;45528;52.102;5.242;2023-01-29T00:51:01;102572.0;;;10.84;52.08
32452;BME280;45528;52.102;5.242;2023-01-29T00:52:40;102577.0;;;10.89;52.09
32452;BME280;45528;52.102;5.242;2023-01-29T00:55:54;102574.0;;;10.89;51.77
32452;BME280;45528;52.102;5.242;2023-01-29T00:57:33;102567.0;;;10.82;52.28
32452;BME280;45528;52.102;5.242;2023-01-29T00:59:10;102559.99999999999;;;10.78;52.32
32452;BME280;45528;52.102;5.242;2023-01-29T01:03:28;102556.0;;;10.76;52.55
32452;BME280;45528;52.102;5.242;2023-01-29T01:05:08;102564.00000000001;;;10.68;52.59
32452;BME280;45528;52.102;5.242;2023-01-29T01:06:51;102561.99999999999;;;10.79;52.26
32452;BME280;45528;52.102;5.242;2023-01-29T01:10:57;102563.00000000001;;;10.82;52.29
32452;BME280;45528;52.102;5.242;2023-01-29T01:12:34;102553.0;;;10.93;52.11
32452;BME280;45528;52.102;5.242;2023-01-29T01:14:10;102549.0;;;10.9;52.34
32452;BME280;45528;52.102;5.242;2023-01-29T01:15:47;102551.0;;;10.82;52.48
32452;BME280;45528;52.102;5.242;2023-01-29T01:19:01;102548.0;;;10.87;52.27
32452;BME280;45528;52.102;5.242;2023-01-29T01:20:39;102547.0;;;10.86;52.41
32452;BME280;45528;52.102;5.242;2023-01-29T01:22:16;102542.0;;;10.87;52.25
32452;BME280;45528;52.102;5.242;2023-01-29T01:25:29;102542.0;;;10.84;52.18
32452;BME280;45528;52.102;5.242;2023-01-29T01:27:06;102542.0;;;10.9;52.23
32452;BME280;45528;52.102;5.242;2023-01-29T01:28:43;102548.0;;;10.73;52.55
32452;BME280;45528;52.102;5.242;2023-01-29T01:30:19;102549.0;;;10.86;52.33
32452;BME280;45528;52.102;5.242;2023-01-29T01:33:36;102554.0;;;10.97;51.99
32452;BME280;45528;52.102;5.242;2023-01-29T01:35:14;102553.0;;;10.9;51.87
32452;BME280;45528;52.102;5.242;2023-01-29T01:36:51;102556.0;;;10.87;52.21
32452;BME280;45528;52.102;5.242;2023-01-29T01:40:15;102555.0;;;10.79;52.36
32452;BME280;45528;52.102;5.242;2023-01-29T01:41:53;102564.00000000001;;;10.88;52.34
32452;BME280;45528;52.102;5.242;2023-01-29T01:43:46;102564.00000000001;;;10.83;52.42
32452;BME280;45528;52.102;5.242;2023-01-29T01:45:26;102559.99999999999;;;10.82;52.46
32452;BME280;45528;52.102;5.242;2023-01-29T01:47:03;102557.0;;;10.8;52.63
32452;BME280;45528;52.102;5.242;2023-01-29T01:50:23;102559.99999999999;;;10.8;52.43
32452;BME280;45528;52.102;5.242;2023-01-29T01:52:02;102557.0;;;10.86;52.16
32452;BME280;45528;52.102;5.242;2023-01-29T01:53:42;102561.99999999999;;;10.94;52.2
32452;BME280;45528;52.102;5.242;2023-01-29T01:55:23;102561.99999999999;;;10.9;52.02
32452;BME280;45528;52.102;5.242;2023-01-29T01:58:53;102558.99999999999;;;10.9;51.98
32452;BME280;45528;52.102;5.242;2023-01-29T02:00:31;102559.99999999999;;;10.92;51.92
32452;BME280;45528;52.102;5.242;2023-01-29T02:10:31;102558.99999999999;;;10.91;52.01
32452;BME280;45528;52.102;5.242;2023-01-29T02:12:12;102563.00000000001;;;10.99;51.61
32452;BME280;45528;52.102;5.242;2023-01-29T02:15:29;102564.00000000001;;;11.02;51.49
32452;BME280;45528;52.102;5.242;2023-01-29T02:17:09;102554.0;;;10.93;51.6
32452;BME280;45528;52.102;5.242;2023-01-29T02:18:47;102557.0;;;10.89;51.77
32452;BME280;45528;52.102;5.242;2023-01-29T02:22:14;102558.99999999999;;;10.93;51.82
32452;BME280;45528;52.102;5.242;2023-01-29T02:24:14;102552.0;;;11.13;51.46
32452;BME280;45528;52.102;5.242;2023-01-29T02:26:37;102551.0;;;11.03;51.49
32452;BME280;45528;52.102;5.242;2023-01-29T02:28:30;102547.0;;;10.97;51.78
32452;BME280;45528;52.102;5.242;2023-01-29T02:30:16;102552.0;;;11.0;51.6
32452;BME280;45528;52.102;5.242;2023-01-29T02:32:11;102551.0;;;11.13;51.28
32452;BME280;45528;52.102;5.242;2023-01-29T02:33:56;102556.0;;;11.05;51.27
32452;BME280;45528;52.102;5.242;2023-01-29T02:35:53;102557.0;;;10.98;51.43
32452;BME280;45528;52.102;5.242;2023-01-29T02:37:38;102563.00000000001;;;10.96;51.34
32452;BME280;45528;52.102;5.242;2023-01-29T02:39:26;102565.00000000001;;;10.89;51.87
32452;BME280;45528;52.102;5.242;2023-01-29T02:42:52;102567.0;;;10.98;51.63
32452;BME280;45528;52.102;5.242;2023-01-29T02:44:39;102567.0;;;10.95;51.78
32452;BME280;45528;52.102;5.242;2023-01-29T02:46:21;102567.0;;;10.92;51.73
32452;BME280;45528;52.102;5.242;2023-01-29T02:48:04;102569.0;;;10.9;51.9
32452;BME280;45528;52.102;5.242;2023-01-29T02:51:30;102568.0;;;10.95;51.62
32452;BME280;45528;52.102;5.242;2023-01-29T02:53:14;102566.00000000001;;;10.95;51.32
32452;BME280;45528;52.102;5.242;2023-01-29T02:54:58;102567.0;;;10.99;51.44
32452;BME280;45528;52.102;5.242;2023-01-29T02:56:38;102564.00000000001;;;10.99;51.68
32452;BME280;45528;52.102;5.242;2023-01-29T02:58:26;102567.0;;;10.98;51.51
32452;BME280;45528;52.102;5.242;2023-01-29T03:01:53;102569.0;;;10.92;51.79
32452;BME280;45528;52.102;5.242;2023-01-29T03:03:35;102567.0;;;10.86;51.81
32452;BME280;45528;52.102;5.242;2023-01-29T03:05:21;102568.0;;;10.86;51.82
32452;BME280;45528;52.102;5.242;2023-01-29T03:07:03;102567.0;;;10.88;51.9
32452;BME280;45528;52.102;5.242;2023-01-29T03:08:46;102559.99999999999;;;11.02;51.49
32452;BME280;45528;52.102;5.242;2023-01-29T03:12:21;102559.99999999999;;;10.96;52.15
32452;BME280;45528;52.102;5.242;2023-01-29T03:14:10;102556.0;;;10.93;52.12
32452;BME280;45528;52.102;5.242;2023-01-29T03:15:58;102551.0;;;10.85;52.12
32452;BME280;45528;52.102;5.242;2023-01-29T03:17:42;102545.0;;;10.88;51.83
32452;BME280;45528;52.102;5.242;2023-01-29T03:19:26;102544.0;;;10.83;52.43
32452;BME280;45528;52.102;5.242;2023-01-29T03:21:52;102542.0;;;10.86;52.17
32452;BME280;45528;52.102;5.242;2023-01-29T03:32:15;102540.00000000001;;;10.92;51.86
32452;BME280;45528;52.102;5.242;2023-01-29T03:34:08;102536.99999999999;;;10.81;52.61
32452;BME280;45528;52.102;5.242;2023-01-29T03:37:35;102520.0;;;10.74;52.88
32452;BME280;45528;52.102;5.242;2023-01-29T03:39:15;102515.00000000001;;;10.77;52.74
32452;BME280;45528;52.102;5.242;2023-01-29T03:40:55;102513.00000000001;;;10.73;52.63
32452;BME280;45528;52.102;5.242;2023-01-29T03:42:44;102514.00000000001;;;10.81;52.58
32452;BME280;45528;52.102;5.242;2023-01-29T03:44:32;102507.0;;;10.76;52.62
32452;BME280;45528;52.102;5.242;2023-01-29T03:48:06;102507.0;;;10.78;52.51
32452;BME280;45528;52.102;5.242;2023-01-29T03:49:56;102511.99999999999;;;10.82;52.7
32452;BME280;45528;52.102;5.242;2023-01-29T03:51:37;102508.0;;;10.76;52.67
32452;BME280;45528;52.102;5.242;2023-01-29T03:53:24;102507.0;;;10.63;53.01
32452;BME280;45528;52.102;5.242;2023-01-29T03:55:11;102504.0;;;10.65;53.29
32452;BME280;45528;52.102;5.242;2023-01-29T03:56:56;102507.0;;;10.75;52.96
32452;BME280;45528;52.102;5.242;2023-01-29T04:00:22;102505.0;;;10.7;52.97
32452;BME280;45528;52.102;5.242;2023-01-29T04:02:05;102502.0;;;10.72;52.87
32452;BME280;45528;52.102;5.242;2023-01-29T04:03:48;102496.0;;;10.76;53.01
32452;BME280;45528;52.102;5.242;2023-01-29T04:05:35;102497.0;;;10.75;53.13
32452;BME280;45528;52.102;5.242;2023-01-29T04:07:16;102504.0;;;10.8;52.94
32452;BME280;45528;52.102;5.242;2023-01-29T04:10:40;102496.0;;;10.74;53.08
32452;BME280;45528;52.102;5.242;2023-01-29T04:12:20;102488.00000000001;;;10.72;53.19
32452;BME280;45528;52.102;5.242;2023-01-29T04:14:02;102489.00000000001;;;10.78;53.02
32452;BME280;45528;52.102;5.242;2023-01-29T04:15:45;102480.0;;;10.69;53.06
32452;BME280;45528;52.102;5.242;2023-01-29T04:19:10;102482.0;;;10.68;53.13
32452;BME280;45528;52.102;5.242;2023-01-29T04:20:47;102491.00000000001;;;10.74;53.03
32452;BME280;45528;52.102;5.242;2023-01-29T04:22:27;102484.99999999999;;;10.66;53.12
32452;BME280;45528;52.102;5.242;2023-01-29T04:24:08;102488.00000000001;;;10.75;52.77
32452;BME280;45528;52.102;5.242;2023-01-29T04:27:45;102480.0;;;10.73;52.59
32452;BME280;45528;52.102;5.242;2023-01-29T04:29:39;102479.0;;;10.66;52.9
32452;BME280;45528;52.102;5.242;2023-01-29T04:31:22;102476.0;;;10.64;53.12
32452;BME280;45528;52.102;5.242;2023-01-29T04:33:10;102478.0;;;10.65;52.95
32452;BME280;45528;52.102;5.242;2023-01-29T04:34:59;102479.0;;;10.53;53.48
32452;BME280;45528;52.102;5.242;2023-01-29T04:36:45;102471.0;;;10.55;53.49
32452;BME280;45528;52.102;5.242;2023-01-29T04:40:25;102473.0;;;10.59;53.19
32452;BME280;45528;52.102;5.242;2023-01-29T04:42:12;102467.0;;;10.47;53.24
32452;BME280;45528;52.102;5.242;2023-01-29T04:43:59;102468.0;;;10.52;53.42
32452;BME280;45528;52.102;5.242;2023-01-29T04:45:45;102468.0;;;10.54;53.32
32452;BME280;45528;52.102;5.242;2023-01-29T04:47:34;102465.00000000001;;;10.57;53.22
32452;BME280;45528;52.102;5.242;2023-01-29T04:49:24;102468.0;;;10.53;53.19
32452;BME280;45528;52.102;5.242;2023-01-29T04:52:54;102466.00000000001;;;10.57;52.92
32452;BME280;45528;52.102;5.242;2023-01-29T04:54:48;102459.99999999999;;;10.58;52.87
32452;BME280;45528;52.102;5.242;2023-01-29T04:57:18;102457.0;;;10.66;52.63
32452;BME280;45528;52.102;5.242;2023-01-29T04:59:01;102455.0;;;10.57;52.89
32452;BME280;45528;52.102;5.242;2023-01-29T05:00:43;102454.0;;;10.59;52.67
32452;BME280;45528;52.102;5.242;2023-01-29T05:02:21;102451.0;;;10.51;52.91
32452;BME280;45528;52.102;5.242;2023-01-29T05:04:02;102442.0;;;10.54;53.23
32452;BME280;45528;52.102;5.242;2023-01-29T05:07:24;102445.0;;;10.54;53.08
32452;BME280;45528;52.102;5.242;2023-01-29T05:09:05;102445.0;;;10.57;53.0
32452;BME280;45528;52.102;5.242;2023-01-29T05:10:43;102446.0;;;10.56;52.57
32452;BME280;45528;52.102;5.242;2023-01-29T05:12:21;102446.0;;;10.61;52.43
32452;BME280;45528;52.102;5.242;2023-01-29T05:15:44;102442.0;;;10.6;52.58
32452;BME280;45528;52.102;5.242;2023-01-29T05:17:24;102441.00000000001;;;10.67;52.04
32452;BME280;45528;52.102;5.242;2023-01-29T05:19:02;102442.0;;;10.5;52.58
32452;BME280;45528;52.102;5.242;2023-01-29T05:20:40;102443.0;;;10.62;52.07
32452;BME280;45528;52.102;5.242;2023-01-29T05:24:08;102446.0;;;10.69;51.77
32452;BME280;45528;52.102;5.242;2023-01-29T05:25:46;102449.0;;;10.58;51.8
32452;BME280;45528;52.102;5.242;2023-01-29T05:28:28;102451.0;;;10.74;51.33
32452;BME280;45528;52.102;5.242;2023-01-29T05:30:07;102454.0;;;10.66;51.54
32452;BME280;45528;52.102;5.242;2023-01-29T05:31:44;102453.0;;;10.57;51.94
32452;BME280;45528;52.102;5.242;2023-01-29T05:33:23;102452.0;;;10.57;51.51
32452;BME280;45528;52.102;5.242;2023-01-29T05:36:39;102446.0;;;10.73;51.76
32452;BME280;45528;52.102;5.242;2023-01-29T05:38:17;102447.0;;;10.69;51.92
32452;BME280;45528;52.102;5.242;2023-01-29T05:39:54;102451.0;;;10.63;51.93
32452;BME280;45528;52.102;5.242;2023-01-29T05:41:31;102445.0;;;10.63;51.53
32452;BME280;45528;52.102;5.242;2023-01-29T05:44:52;102442.0;;;10.63;51.61
32452;BME280;45528;52.102;5.242;2023-01-29T05:46:28;102446.0;;;10.59;51.5
32452;BME280;45528;52.102;5.242;2023-01-29T05:48:05;102449.0;;;10.69;50.93
32452;BME280;45528;52.102;5.242;2023-01-29T05:49:42;102448.0;;;10.71;50.96
32452;BME280;45528;52.102;5.242;2023-01-29T05:52:56;102450.0;;;10.71;50.9
32452;BME280;45528;52.102;5.242;2023-01-29T05:54:32;102450.0;;;10.75;50.94
32452;BME280;45528;52.102;5.242;2023-01-29T05:56:08;102449.0;;;10.73;50.89
32452;BME280;45528;52.102;5.242;2023-01-29T05:59:22;102446.0;;;10.76;51.08
32452;BME280;45528;52.102;5.242;2023-01-29T06:01:07;102441.00000000001;;;10.69;51.17
32452;BME280;45528;52.102;5.242;2023-01-29T06:02:44;102433.99999999999;;;10.64;51.13
32452;BME280;45528;52.102;5.242;2023-01-29T06:04:21;102430.0;;;10.76;50.98
32452;BME280;45528;52.102;5.242;2023-01-29T06:07:33;102420.0;;;10.81;50.84
32452;BME280;45528;52.102;5.242;2023-01-29T06:09:10;102422.0;;;10.69;51.39
32452;BME280;45528;52.102;5.242;2023-01-29T06:10:47;102424.0;;;10.69;51.42
32452;BME280;45528;52.102;5.242;2023-01-29T06:14:02;102418.0;;;10.56;51.48
32452;BME280;45528;52.102;5.242;2023-01-29T06:15:40;102408.0;;;10.54;51.8
32452;BME280;45528;52.102;5.242;2023-01-29T06:17:17;102406.0;;;10.52;51.59
32452;BME280;45528;52.102;5.242;2023-01-29T06:20:31;102407.0;;;10.64;51.37
32452;BME280;45528;52.102;5.242;2023-01-29T06:22:07;102413.00000000001;;;10.55;51.7
32452;BME280;45528;52.102;5.242;2023-01-29T06:23:44;102411.99999999999;;;10.48;51.29
32452;BME280;45528;52.102;5.242;2023-01-29T06:25:21;102411.99999999999;;;10.66;50.95
32452;BME280;45528;52.102;5.242;2023-01-29T06:28:34;102414.00000000001;;;10.64;51.19
32452;BME280;45528;52.102;5.242;2023-01-29T06:30:12;102403.0;;;10.59;51.3
32452;BME280;45528;52.102;5.242;2023-01-29T06:31:48;102397.0;;;10.5;51.42
32452;BME280;45528;52.102;5.242;2023-01-29T06:35:01;102398.0;;;10.63;51.35
32452;BME280;45528;52.102;5.242;2023-01-29T06:36:40;102397.0;;;10.53;51.33
32452;BME280;45528;52.102;5.242;2023-01-29T06:38:17;102397.0;;;10.52;51.55
32452;BME280;45528;52.102;5.242;2023-01-29T06:41:30;102398.0;;;10.57;51.33
32452;BME280;45528;52.102;5.242;2023-01-29T06:43:06;102404.0;;;10.58;50.96
32452;BME280;45528;52.102;5.242;2023-01-29T06:44:43;102395.0;;;10.59;51.64
32452;BME280;45528;52.102;5.242;2023-01-29T06:46:19;102400.0;;;10.62;51.43
32452;BME280;45528;52.102;5.242;2023-01-29T06:49:33;102397.0;;;10.56;51.29
32452;BME280;45528;52.102;5.242;2023-01-29T06:51:10;102402.0;;;10.56;51.31
32452;BME280;45528;52.102;5.242;2023-01-29T06:52:47;102401.0;;;10.54;51.18
32452;BME280;45528;52.102;5.242;2023-01-29T06:55:59;102401.0;;;10.41;51.28
32452;BME280;45528;52.102;5.242;2023-01-29T06:57:36;102406.0;;;10.57;50.66
32452;BME280;45528;52.102;5.242;2023-01-29T06:59:13;102403.0;;;10.65;50.45
32452;BME280;45528;52.102;5.242;2023-01-29T07:02:28;102404.0;;;10.71;50.61
32452;BME280;45528;52.102;5.242;2023-01-29T07:04:04;102407.0;;;10.75;50.36
32452;BME280;45528;52.102;5.242;2023-01-29T07:05:41;102405.0;;;10.77;50.53
32452;BME280;45528;52.102;5.242;2023-01-29T07:07:18;102403.0;;;10.68;50.5
32452;BME280;45528;52.102;5.242;2023-01-29T07:10:31;102401.0;;;10.66;50.84
32452;BME280;45528;52.102;5.242;2023-01-29T07:12:07;102395.0;;;10.64;51.08
32452;BME280;45528;52.102;5.242;2023-01-29T07:13:44;102395.0;;;10.6;51.41
32452;BME280;45528;52.102;5.242;2023-01-29T07:16:57;102390.0;;;10.61;51.75
32452;BME280;45528;52.102;5.242;2023-01-29T07:18:35;102389.0;;;10.57;51.87
32452;BME280;45528;52.102;5.242;2023-01-29T07:20:12;102393.0;;;10.6;51.96
32452;BME280;45528;52.102;5.242;2023-01-29T07:21:48;102390.0;;;10.59;51.76
32452;BME280;45528;52.102;5.242;2023-01-29T07:25:01;102393.0;;;10.44;51.95
32452;BME280;45528;52.102;5.242;2023-01-29T07:26:38;102396.0;;;10.51;51.75
32452;BME280;45528;52.102;5.242;2023-01-29T07:28:15;102396.0;;;10.59;51.6
32452;BME280;45528;52.102;5.242;2023-01-29T07:31:29;102400.0;;;10.64;51.2
32452;BME280;45528;52.102;5.242;2023-01-29T07:33:08;102401.0;;;10.69;51.06
32452;BME280;45528;52.102;5.242;2023-01-29T07:34:45;102395.0;;;10.53;51.73
32452;BME280;45528;52.102;5.242;2023-01-29T07:37:59;102395.0;;;10.57;51.18
32452;BME280;45528;52.102;5.242;2023-01-29T07:39:35;102395.0;;;10.46;51.34
32452;BME280;45528;52.102;5.242;2023-01-29T07:41:11;102396.0;;;10.59;51.3
32452;BME280;45528;52.102;5.242;2023-01-29T07:42:48;102402.0;;;10.7;51.18
32452;BME280;45528;52.102;5.242;2023-01-29T07:46:02;102400.0;;;10.62;50.98
32452;BME280;45528;52.102;5.242;2023-01-29T07:47:39;102393.0;;;10.58;51.34
32452;BME280;45528;52.102;5.242;2023-01-29T07:49:15;102388.0;;;10.54;51.22
32452;BME280;45528;52.102;5.242;2023-01-29T07:52:32;102382.0;;;10.62;50.95
32452;BME280;45528;52.102;5.242;2023-01-29T07:54:08;102382.0;;;10.58;51.36
32452;BME280;45528;52.102;5.242;2023-01-29T07:55:44;102380.0;;;10.51;51.61
32452;BME280;45528;52.102;5.242;2023-01-29T07:57:22;102378.0;;;10.42;51.52
32452;BME280;45528;52.102;5.242;2023-01-29T08:00:36;102372.0;;;10.51;51.29
32452;BME280;45528;52.102;5.242;2023-01-29T08:02:13;102366.0;;;10.36;51.18
32452;BME280;45528;52.102;5.242;2023-01-29T08:03:50;102368.0;;;10.47;50.97
32452;BME280;45528;52.102;5.242;2023-01-29T08:07:05;102363.0;;;10.43;51.21
32452;BME280;45528;52.102;5.242;2023-01-29T08:08:41;102361.0;;;10.53;50.93
32452;BME280;45528;52.102;5.242;2023-01-29T08:10:18;102358.0;;;10.37;51.29
32452;BME280;45528;52.102;5.242;2023-01-29T08:13:33;102356.0;;;10.52;51.32
32452;BME280;45528;52.102;5.242;2023-01-29T08:15:10;102352.0;;;10.4;51.22
32452;BME280;45528;52.102;5.242;2023-01-29T08:16:47;102349.0;;;10.38;51.07
32452;BME280;45528;52.102;5.242;2023-01-29T08:18:24;102355.0;;;10.57;50.63
32452;BME280;45528;52.102;5.242;2023-01-29T08:21:38;102355.0;;;10.58;50.72
32452;BME280;45528;52.102;5.242;2023-01-29T08:23:15;102351.0;;;10.79;50.29
32452;BME280;45528;52.102;5.242;2023-01-29T08:24:52;102349.0;;;10.75;50.54
32452;BME280;45528;52.102;5.242;2023-01-29T08:28:05;102351.0;;;10.79;50.15
32452;BME280;45528;52.102;5.242;2023-01-29T08:29:42;102358.0;;;10.73;50.47
32452;BME280;45528;52.102;5.242;2023-01-29T08:31:19;102350.0;;;10.69;50.57
32452;BME280;45528;52.102;5.242;2023-01-29T08:32:55;102357.0;;;10.52;50.56
32452;BME280;45528;52.102;5.242;2023-01-29T08:36:10;102353.0;;;10.34;50.66
32452;BME280;45528;52.102;5.242;2023-01-29T08:37:52;102349.0;;;10.58;50.39
32452;BME280;45528;52.102;5.242;2023-01-29T08:39:31;102346.0;;;10.33;50.79
32452;BME280;45528;52.102;5.242;2023-01-29T08:42:44;102338.0;;;10.42;50.6
32452;BME280;45528;52.102;5.242;2023-01-29T08:44:20;102339.0;;;10.64;50.54
32452;BME280;45528;52.102;5.242;2023-01-29T08:45:57;102340.0;;;10.69;50.08
32452;BME280;45528;52.102;5.242;2023-01-29T08:47:34;102337.0;;;10.44;50.68
32452;BME280;45528;52.102;5.242;2023-01-29T08:50:48;102337.0;;;10.74;50.27
32452;BME280;45528;52.102;5.242;2023-01-29T08:52:24;102331.0;;;10.54;50.21
32452;BME280;45528;52.102;5.242;2023-01-29T08:54:00;102330.0;;;10.78;49.88
32452;BME280;45528;52.102;5.242;2023-01-29T08:57:14;102331.0;;;10.77;49.68
32452;BME280;45528;52.102;5.242;2023-01-29T08:58:51;102324.0;;;10.91;49.98
32452;BME280;45528;52.102;5.242;2023-01-29T09:00:29;102323.0;;;10.46;50.16
32452;BME280;45528;52.102;5.242;2023-01-29T09:03:42;102325.0;;;10.59;49.98
32452;BME280;45528;52.102;5.242;2023-01-29T09:05:19;102332.0;;;10.91;49.55
32452;BME280;45528;52.102;5.242;2023-01-29T09:06:56;102328.0;;;10.86;49.68
32452;BME280;45528;52.102;5.242;2023-01-29T09:08:33;102328.0;;;11.04;49.45
32452;BME280;45528;52.102;5.242;2023-01-29T09:11:48;102328.0;;;10.92;49.89
32452;BME280;45528;52.102;5.242;2023-01-29T09:13:24;102324.0;;;10.92;49.87
32452;BME280;45528;52.102;5.242;2023-01-29T09:15:01;102327.0;;;11.1;49.75
32452;BME280;45528;52.102;5.242;2023-01-29T09:18:15;102326.0;;;10.83;50.11
32452;BME280;45528;52.102;5.242;2023-01-29T09:19:52;102327.0;;;11.07;49.58
32452;BME280;45528;52.102;5.242;2023-01-29T09:21:29;102330.0;;;11.08;49.66
32452;BME280;45528;52.102;5.242;2023-01-29T09:24:44;102328.0;;;11.14;49.26
32452;BME280;45528;52.102;5.242;2023-01-29T09:26:21;102324.0;;;11.1;49.65
32452;BME280;45528;52.102;5.242;2023-01-29T09:27:58;102333.0;;;11.17;49.36
32452;BME280;45528;52.102;5.242;2023-01-29T09:29:35;102333.0;;;11.15;49.33
32452;BME280;45528;52.102;5.242;2023-01-29T09:32:49;102332.0;;;10.94;49.65
32452;BME280;45528;52.102;5.242;2023-01-29T09:34:26;102330.0;;;11.09;49.47
32452;BME280;45528;52.102;5.242;2023-01-29T09:36:03;102330.0;;;11.09;49.32
32452;BME280;45528;52.102;5.242;2023-01-29T09:39:15;102325.0;;;11.35;49.32
32452;BME280;45528;52.102;5.242;2023-01-29T09:40:59;102323.0;;;11.43;49.05
32452;BME280;45528;52.102;5.242;2023-01-29T09:42:44;102330.0;;;11.03;49.63
32452;BME280;45528;52.102;5.242;2023-01-29T09:44:39;102323.0;;;11.24;49.08
32452;BME280;45528;52.102;5.242;2023-01-29T09:46:32;102326.0;;;11.24;48.86
32452;BME280;45528;52.102;5.242;2023-01-29T09:49:51;102335.0;;;11.19;48.68
32452;BME280;45528;52.102;5.242;2023-01-29T09:51:36;102332.0;;;11.22;48.65
32452;BME280;45528;52.102;5.242;2023-01-29T09:53:19;102328.0;;;10.94;49.22
32452;BME280;45528;52.102;5.242;2023-01-29T09:55:01;102334.0;;;11.04;49.5
32452;BME280;45528;52.102;5.242;2023-01-29T09:56:44;102321.0;;;10.67;49.98
32452;BME280;45528;52.102;5.242;2023-01-29T10:00:04;102323.0;;;10.75;49.54
32452;BME280;45528;52.102;5.242;2023-01-29T10:01:49;102321.0;;;11.06;49.18
32452;BME280;45528;52.102;5.242;2023-01-29T10:03:41;102319.0;;;10.98;49.3
32452;BME280;45528;52.102;5.242;2023-01-29T10:05:36;102317.0;;;10.74;49.89
32452;BME280;45528;52.102;5.242;2023-01-29T10:07:36;102321.0;;;11.07;49.37
32452;BME280;45528;52.102;5.242;2023-01-29T10:10:01;102319.0;;;10.84;49.6
32452;BME280;45528;52.102;5.242;2023-01-29T10:11:58;102321.0;;;10.83;49.86
32452;BME280;45528;52.102;5.242;2023-01-29T10:13:50;102319.0;;;11.11;49.88
32452;BME280;45528;52.102;5.242;2023-01-29T10:15:46;102322.0;;;10.88;49.72
32452;BME280;45528;52.102;5.242;2023-01-29T10:19:43;102315.0;;;11.18;49.33
32452;BME280;45528;52.102;5.242;2023-01-29T10:23:07;102322.0;;;10.96;49.63
32452;BME280;45528;52.102;5.242;2023-01-29T10:24:56;102313.0;;;11.27;49.06
32452;BME280;45528;52.102;5.242;2023-01-29T10:26:37;102308.0;;;11.35;48.87
32452;BME280;45528;52.102;5.242;2023-01-29T10:28:17;102310.0;;;11.02;49.38
32452;BME280;45528;52.102;5.242;2023-01-29T10:31:36;102302.0;;;11.39;49.13
32452;BME280;45528;52.102;5.242;2023-01-29T10:33:18;102297.0;;;11.41;48.88
32452;BME280;45528;52.102;5.242;2023-01-29T10:35:11;102294.0;;;11.4;48.72
32452;BME280;45528;52.102;5.242;2023-01-29T10:36:58;102293.0;;;10.99;49.2
32452;BME280;45528;52.102;5.242;2023-01-29T10:38:41;102284.0;;;11.14;49.03
32452;BME280;45528;52.102;5.242;2023-01-29T10:42:11;102286.0;;;11.55;48.49
32452;BME280;45528;52.102;5.242;2023-01-29T10:44:01;102285.0;;;11.29;49.0
32452;BME280;45528;52.102;5.242;2023-01-29T10:45:53;102276.0;;;11.28;49.36
32452;BME280;45528;52.102;5.242;2023-01-29T10:47:49;102273.0;;;11.28;49.22
32452;BME280;45528;52.102;5.242;2023-01-29T10:50:40;102272.0;;;11.18;49.57
32452;BME280;45528;52.102;5.242;2023-01-29T10:52:34;102261.0;;;11.31;49.22
32452;BME280;45528;52.102;5.242;2023-01-29T10:54:26;102270.0;;;11.53;48.78
32452;BME280;45528;52.102;5.242;2023-01-29T10:56:22;102256.0;;;10.95;49.67
32452;BME280;45528;52.102;5.242;2023-01-29T10:58:11;102257.0;;;11.15;49.54
32452;BME280;45528;52.102;5.242;2023-01-29T11:00:03;102255.0;;;10.98;49.63
32452;BME280;45528;52.102;5.242;2023-01-29T11:01:43;102248.0;;;10.95;49.98
32452;BME280;45528;52.102;5.242;2023-01-29T11:05:00;102241.0;;;11.21;49.41
32452;BME280;45528;52.102;5.242;2023-01-29T11:06:37;102240.0;;;11.38;49.33
32452;BME280;45528;52.102;5.242;2023-01-29T11:08:17;102238.0;;;11.05;49.71
32452;BME280;45528;52.102;5.242;2023-01-29T11:09:56;102237.0;;;11.04;49.82
32452;BME280;45528;52.102;5.242;2023-01-29T11:13:18;102233.0;;;11.16;49.89
32452;BME280;45528;52.102;5.242;2023-01-29T11:15:17;102232.0;;;11.38;49.3